Time;durP1;ratioP1;P1;durP2;ratioP2;P2;SDS_P1;SDS_P2;PMS_P1;PMS_P2;Temp;Humidity;BMP_temperature;BMP_pressure;BME280_temperature;BME280_humidity;BME280_pressure;Samples;Min_cycle;Max_cycle;Signal;HPM_P1;HPM_P2
2023/04/22 00:00:48;;;;;;;9.60;8.60;;;11.50;54.50;;;;;;6293462;28;20257;-81
2023/04/22 00:03:51;;;;;;;9.53;8.57;;;11.50;54.30;;;;;;6294512;28;20224;-81
2023/04/22 00:06:55;;;;;;;10.47;8.77;;;11.50;54.40;;;;;;6298298;28;20252;-80
2023/04/22 00:10:00;;;;;;;9.67;8.80;;;11.50;54.70;;;;;;6290956;28;20227;-81
2023/04/22 00:13:03;;;;;;;9.80;9.00;;;11.40;54.80;;;;;;6302950;28;20368;-82
2023/04/22 00:16:06;;;;;;;9.53;8.77;;;11.50;54.70;;;;;;6283792;28;20234;-85
2023/04/22 00:19:09;;;;;;;8.90;8.10;;;11.50;54.50;;;;;;6262851;28;20317;-84
2023/04/22 00:22:12;;;;;;;9.40;8.70;;;11.40;54.40;;;;;;6269389;28;20242;-86
2023/04/22 00:25:17;;;;;;;9.60;8.70;;;11.50;54.30;;;;;;6267626;28;20226;-82
2023/04/22 00:28:21;;;;;;;8.73;8.10;;;11.40;54.40;;;;;;6261210;28;20354;-86
2023/04/22 00:31:24;;;;;;;9.63;8.93;;;11.40;54.50;;;;;;6268943;28;20245;-84
2023/04/22 00:34:27;;;;;;;9.83;8.40;;;11.30;54.80;;;;;;6253621;28;20257;-88
2023/04/22 00:37:30;;;;;;;9.07;8.20;;;11.30;54.80;;;;;;6263676;28;20226;-83
2023/04/22 00:40:35;;;;;;;9.43;8.73;;;11.10;54.80;;;;;;6274481;28;21689;-87
2023/04/22 00:43:38;;;;;;;9.70;8.77;;;11.10;54.80;;;;;;6262654;28;20231;-85
2023/04/22 00:46:41;;;;;;;9.13;8.53;;;11.10;54.70;;;;;;6284584;28;20289;-80
2023/04/22 00:49:45;;;;;;;8.97;7.90;;;11.10;54.80;;;;;;6282723;28;20226;-80
2023/04/22 00:52:47;;;;;;;9.27;8.63;;;11.10;55.00;;;;;;6292376;28;20226;-80
2023/04/22 00:55:52;;;;;;;9.07;8.37;;;11.10;54.80;;;;;;6300276;28;20289;-80
2023/04/22 00:58:56;;;;;;;9.50;8.83;;;11.00;55.00;;;;;;6282420;28;20294;-82
2023/04/22 01:02:00;;;;;;;9.17;8.43;;;11.00;54.80;;;;;;6293474;28;20459;-83
2023/04/22 01:05:04;;;;;;;9.10;8.40;;;11.00;54.60;;;;;;6296448;28;20232;-81
2023/04/22 01:08:08;;;;;;;8.20;7.60;;;11.00;54.80;;;;;;6295836;28;20218;-81
2023/04/22 01:11:13;;;;;;;9.13;8.33;;;11.00;55.10;;;;;;6278670;28;20260;-82
2023/04/22 01:14:16;;;;;;;9.03;8.33;;;11.00;55.10;;;;;;6263673;28;21120;-83
2023/04/22 01:17:20;;;;;;;8.70;8.10;;;11.00;55.50;;;;;;6256279;28;20249;-84
2023/04/22 01:20:24;;;;;;;9.70;8.77;;;10.90;55.30;;;;;;6266325;28;20238;-83
2023/04/22 01:23:29;;;;;;;8.97;8.37;;;10.90;55.20;;;;;;6252961;28;20226;-84
2023/04/22 01:26:32;;;;;;;9.43;8.73;;;10.90;55.30;;;;;;6269884;28;20237;-85
2023/04/22 01:29:37;;;;;;;9.30;8.43;;;10.80;55.20;;;;;;6268357;28;20238;-86
2023/04/22 01:32:41;;;;;;;10.97;9.87;;;10.80;55.40;;;;;;6252651;28;20237;-85
2023/04/22 01:35:44;;;;;;;9.57;8.57;;;10.80;55.50;;;;;;6260645;28;20776;-83
2023/04/22 01:38:50;;;;;;;9.73;8.87;;;10.70;55.80;;;;;;6267053;28;20234;-87
2023/04/22 01:41:54;;;;;;;9.33;8.53;;;10.70;55.50;;;;;;6265645;28;20239;-86
2023/04/22 01:44:57;;;;;;;10.80;9.50;;;10.70;55.40;;;;;;6276030;28;20247;-81
2023/04/22 01:48:00;;;;;;;9.97;9.27;;;10.70;55.60;;;;;;6255511;28;20361;-84
2023/04/22 01:51:06;;;;;;;9.97;9.10;;;10.60;55.60;;;;;;6268491;28;20282;-81
2023/04/22 01:54:12;;;;;;;8.63;8.03;;;10.60;55.70;;;;;;6269710;28;20230;-81
2023/04/22 01:57:15;;;;;;;8.87;8.17;;;10.60;55.70;;;;;;6279150;28;21491;-81
2023/04/22 02:00:19;;;;;;;8.87;8.27;;;10.50;55.90;;;;;;6267203;28;20717;-85
2023/04/22 02:03:22;;;;;;;10.47;9.57;;;10.60;55.70;;;;;;6249586;28;20248;-84
2023/04/22 02:06:26;;;;;;;9.90;9.00;;;10.50;55.70;;;;;;6262953;28;20286;-81
2023/04/22 02:09:30;;;;;;;9.17;8.47;;;10.50;55.90;;;;;;6266986;28;20280;-85
2023/04/22 02:12:34;;;;;;;9.80;8.90;;;10.50;56.00;;;;;;6272522;28;20242;-82
2023/04/22 02:15:38;;;;;;;9.73;8.90;;;10.40;56.20;;;;;;6260984;28;20253;-84
2023/04/22 02:18:41;;;;;;;8.67;8.00;;;10.40;56.00;;;;;;6244694;28;20327;-83
2023/04/22 02:21:44;;;;;;;9.43;8.70;;;10.40;56.10;;;;;;6261079;28;20242;-85
2023/04/22 02:24:52;;;;;;;9.57;8.47;;;10.30;56.20;;;;;;6259073;28;20305;-83
2023/04/22 02:27:56;;;;;;;10.13;9.17;;;10.30;56.10;;;;;;6266427;28;20265;-82
2023/04/22 02:30:59;;;;;;;10.10;9.13;;;10.40;56.00;;;;;;6266340;28;20230;-85
2023/04/22 02:34:02;;;;;;;10.20;9.30;;;10.30;56.20;;;;;;6264748;28;20234;-84
2023/04/22 02:37:06;;;;;;;9.93;8.93;;;10.30;56.20;;;;;;6247524;28;20753;-86
2023/04/22 02:40:11;;;;;;;10.83;9.80;;;10.30;56.30;;;;;;6243320;28;20230;-84
2023/04/22 02:43:14;;;;;;;10.40;8.73;;;10.30;56.10;;;;;;6248212;28;20230;-84
2023/04/22 02:46:17;;;;;;;9.67;8.77;;;10.30;55.90;;;;;;6264837;28;20230;-83
2023/04/22 02:49:21;;;;;;;10.67;9.77;;;10.40;55.80;;;;;;6256462;28;20242;-84
2023/04/22 02:52:24;;;;;;;9.80;9.00;;;10.30;56.10;;;;;;6262294;28;20242;-83
2023/04/22 02:55:28;;;;;;;10.60;9.33;;;10.30;56.00;;;;;;6257566;28;20230;-84
2023/04/22 02:58:31;;;;;;;9.90;9.00;;;10.30;55.90;;;;;;6264462;28;20226;-84
2023/04/22 03:01:34;;;;;;;10.00;9.20;;;10.30;55.80;;;;;;6248938;28;20241;-86
2023/04/22 03:04:38;;;;;;;10.53;9.23;;;10.20;56.20;;;;;;6265163;28;20237;-85
2023/04/22 03:07:43;;;;;;;10.27;8.80;;;10.10;56.20;;;;;;6278552;28;20256;-84
2023/04/22 03:10:48;;;;;;;9.57;8.77;;;10.10;56.60;;;;;;6262956;28;20756;-84
2023/04/22 03:13:51;;;;;;;9.87;9.07;;;10.10;56.30;;;;;;6261040;28;20321;-83
2023/04/22 03:16:54;;;;;;;9.30;8.57;;;10.00;56.40;;;;;;6262562;28;20245;-84
2023/04/22 03:19:57;;;;;;;12.30;9.83;;;10.00;56.40;;;;;;6264176;28;20318;-84
2023/04/22 03:23:00;;;;;;;9.73;8.87;;;10.00;56.50;;;;;;6270589;28;20312;-84
2023/04/22 03:26:05;;;;;;;11.03;9.93;;;9.90;56.60;;;;;;6254436;28;20237;-83
2023/04/22 03:29:11;;;;;;;9.63;8.83;;;9.80;56.70;;;;;;6254890;28;20224;-84
2023/04/22 03:32:14;;;;;;;9.40;8.50;;;9.80;56.60;;;;;;6247107;28;20249;-81
2023/04/22 03:35:18;;;;;;;9.83;9.03;;;9.80;56.60;;;;;;6238163;28;20234;-80
2023/04/22 03:38:21;;;;;;;11.17;10.07;;;9.80;56.70;;;;;;6251531;28;20665;-79
2023/04/22 03:41:26;;;;;;;10.60;9.67;;;9.80;56.90;;;;;;6273346;28;20237;-80
2023/04/22 03:44:30;;;;;;;10.27;9.47;;;9.80;56.90;;;;;;6256173;28;20245;-80
2023/04/22 03:47:33;;;;;;;10.00;9.20;;;9.70;56.80;;;;;;6264188;28;20273;-81
2023/04/22 03:50:36;;;;;;;10.50;9.47;;;9.70;57.50;;;;;;6256533;28;20231;-81
2023/04/22 03:53:40;;;;;;;10.50;9.00;;;9.60;57.50;;;;;;6255162;28;20238;-80
2023/04/22 03:56:44;;;;;;;10.90;9.97;;;9.60;57.60;;;;;;6263548;28;20249;-81
2023/04/22 03:59:48;;;;;;;11.70;10.47;;;9.50;57.50;;;;;;6269688;28;20367;-81
2023/04/22 04:02:51;;;;;;;10.63;9.67;;;9.50;57.60;;;;;;6266457;28;20362;-79
2023/04/22 04:05:54;;;;;;;11.67;10.30;;;9.50;57.70;;;;;;6275179;28;20241;-81
2023/04/22 04:08:58;;;;;;;9.50;8.80;;;9.40;57.90;;;;;;6262153;28;20248;-80
2023/04/22 04:12:03;;;;;;;10.50;9.60;;;9.40;58.00;;;;;;6270976;28;20328;-79
2023/04/22 04:15:07;;;;;;;11.03;9.90;;;9.40;58.20;;;;;;6266469;28;20244;-81
2023/04/22 04:18:13;;;;;;;11.53;10.33;;;9.40;58.30;;;;;;6259521;28;20372;-80
2023/04/22 04:21:16;;;;;;;11.40;10.20;;;9.40;58.40;;;;;;6257187;28;20246;-81
2023/04/22 04:24:20;;;;;;;11.47;10.57;;;9.40;58.60;;;;;;6259952;28;20249;-82
2023/04/22 04:27:27;;;;;;;11.00;10.00;;;9.40;58.70;;;;;;6272359;28;20238;-81
2023/04/22 04:30:30;;;;;;;11.27;10.20;;;9.40;58.70;;;;;;6272292;28;20238;-81
2023/04/22 04:33:36;;;;;;;10.73;9.60;;;9.40;58.90;;;;;;6262668;28;20309;-82
2023/04/22 04:36:40;;;;;;;9.97;9.13;;;9.40;58.70;;;;;;6257096;28;20233;-80
2023/04/22 04:39:43;;;;;;;11.60;10.50;;;9.40;58.70;;;;;;6250850;28;20317;-80
2023/04/22 04:42:48;;;;;;;11.00;9.93;;;9.40;58.80;;;;;;6268754;28;20230;-81
2023/04/22 04:45:51;;;;;;;12.80;10.37;;;9.40;58.80;;;;;;6258112;28;20234;-81
2023/04/22 04:48:54;;;;;;;12.13;11.03;;;9.40;58.80;;;;;;6265048;28;20237;-82
2023/04/22 04:51:57;;;;;;;10.43;9.60;;;9.40;58.70;;;;;;6257048;28;20330;-81
2023/04/22 04:55:00;;;;;;;14.27;11.60;;;9.50;58.40;;;;;;6258130;28;20759;-80
2023/04/22 04:58:04;;;;;;;11.43;10.30;;;9.50;58.50;;;;;;6267195;28;20784;-80
2023/04/22 05:01:07;;;;;;;10.93;10.03;;;9.50;58.50;;;;;;6254217;28;20244;-82
2023/04/22 05:04:11;;;;;;;11.27;10.27;;;9.50;58.70;;;;;;6263805;28;20230;-81
2023/04/22 05:07:14;;;;;;;11.87;10.73;;;9.50;58.90;;;;;;6256994;28;20233;-81
2023/04/22 05:10:18;;;;;;;11.00;10.13;;;9.50;59.00;;;;;;6258693;28;20238;-81
2023/04/22 05:13:22;;;;;;;10.97;9.90;;;9.50;59.00;;;;;;6256736;28;20242;-81
2023/04/22 05:16:25;;;;;;;11.70;10.80;;;9.60;59.00;;;;;;6242119;28;20235;-81
2023/04/22 05:19:29;;;;;;;13.03;10.73;;;9.60;58.80;;;;;;6252493;28;20245;-80
2023/04/22 05:22:34;;;;;;;12.80;11.47;;;9.70;58.60;;;;;;6240291;28;20626;-80
2023/04/22 05:25:37;;;;;;;11.10;10.20;;;9.70;58.40;;;;;;6262240;28;20262;-82
2023/04/22 05:28:41;;;;;;;10.67;9.80;;;9.90;58.10;;;;;;6259791;28;20233;-81
2023/04/22 05:31:44;;;;;;;11.17;10.20;;;9.90;58.00;;;;;;6262344;28;20265;-78
2023/04/22 05:34:47;;;;;;;11.50;10.40;;;10.00;58.00;;;;;;6264022;28;20636;-80
2023/04/22 05:37:51;;;;;;;12.00;10.70;;;10.00;58.00;;;;;;6255279;28;20234;-80
2023/04/22 05:40:54;;;;;;;11.70;10.70;;;10.20;57.80;;;;;;6240525;28;20233;-80
2023/04/22 05:43:58;;;;;;;13.17;11.27;;;10.30;57.20;;;;;;6246433;28;20237;-80
2023/04/22 05:47:01;;;;;;;11.77;10.77;;;10.50;57.00;;;;;;6253402;28;20244;-80
2023/04/22 05:50:05;;;;;;;12.40;11.10;;;10.60;56.80;;;;;;6256312;28;20302;-80
2023/04/22 05:53:09;;;;;;;13.23;11.73;;;10.70;56.60;;;;;;6259475;28;20764;-79
2023/04/22 05:56:12;;;;;;;11.63;10.63;;;10.90;56.70;;;;;;6246443;28;20350;-81
2023/04/22 05:59:17;;;;;;;11.03;10.13;;;11.10;56.60;;;;;;6265473;28;20715;-80
2023/04/22 06:02:40;;;;;;;10.67;9.80;;;11.30;55.90;;;;;;6257298;28;20301;-80
2023/04/22 06:05:44;;;;;;;12.07;10.87;;;11.50;55.60;;;;;;6256885;28;20733;-79
2023/04/22 06:08:47;;;;;;;12.57;11.30;;;11.70;55.30;;;;;;6260896;28;20322;-78
2023/04/22 06:11:50;;;;;;;12.30;11.20;;;11.90;55.40;;;;;;6256609;28;20244;-79
2023/04/22 06:14:54;;;;;;;12.33;11.30;;;12.10;54.60;;;;;;6254289;28;20229;-81
2023/04/22 06:17:59;;;;;;;13.73;11.70;;;12.40;54.10;;;;;;6253787;28;20242;-81
2023/04/22 06:21:02;;;;;;;12.27;10.73;;;12.70;53.40;;;;;;6251755;28;20329;-81
2023/04/22 06:24:06;;;;;;;12.00;10.97;;;13.10;53.20;;;;;;6257423;28;20245;-75
2023/04/22 06:27:09;;;;;;;11.77;10.67;;;13.40;52.50;;;;;;6261995;28;20233;-79
2023/04/22 06:30:14;;;;;;;10.97;10.03;;;13.60;52.50;;;;;;6262084;28;20369;-79
2023/04/22 06:33:17;;;;;;;11.70;10.50;;;13.80;51.90;;;;;;6222151;28;20235;-81
2023/04/22 06:36:20;;;;;;;10.80;9.90;;;13.90;51.80;;;;;;6237032;28;20243;-81
2023/04/22 06:39:23;;;;;;;10.90;9.97;;;13.90;51.70;;;;;;6251660;28;20242;-81
2023/04/22 06:42:26;;;;;;;10.23;9.43;;;14.00;51.90;;;;;;6270721;28;20238;-78
2023/04/22 06:45:31;;;;;;;11.00;10.00;;;14.10;51.00;;;;;;6273149;28;20237;-79
2023/04/22 06:48:33;;;;;;;11.30;10.20;;;14.20;51.10;;;;;;6267683;28;20418;-79
2023/04/22 06:51:37;;;;;;;11.07;10.00;;;14.30;51.00;;;;;;6252293;28;20231;-80
2023/04/22 06:54:41;;;;;;;10.30;9.40;;;14.40;51.00;;;;;;6257793;28;20241;-80
2023/04/22 06:57:44;;;;;;;10.77;9.73;;;14.60;51.00;;;;;;6259903;28;20244;-80
2023/04/22 07:00:48;;;;;;;11.20;10.17;;;14.80;50.80;;;;;;6261750;28;20236;-81
2023/04/22 07:03:51;;;;;;;9.90;9.30;;;14.80;50.20;;;;;;6262490;28;20229;-80
2023/04/22 07:06:55;;;;;;;10.97;10.00;;;14.90;50.00;;;;;;6254035;28;20257;-80
2023/04/22 07:09:58;;;;;;;9.90;8.80;;;15.00;49.80;;;;;;6256934;28;20257;-80
2023/04/22 07:13:02;;;;;;;9.57;8.77;;;15.00;50.00;;;;;;6266203;28;20725;-80
2023/04/22 07:16:06;;;;;;;10.83;9.83;;;15.20;50.20;;;;;;6239580;28;20250;-81
2023/04/22 07:19:10;;;;;;;9.30;8.50;;;15.30;49.60;;;;;;6247820;28;20242;-80
2023/04/22 07:22:13;;;;;;;9.87;8.97;;;15.30;50.10;;;;;;6258922;28;20241;-81
2023/04/22 07:25:18;;;;;;;10.60;9.60;;;15.40;49.80;;;;;;6256553;28;20664;-80
2023/04/22 07:28:21;;;;;;;11.87;10.47;;;15.50;49.10;;;;;;6243054;28;20238;-79
2023/04/22 07:31:26;;;;;;;9.97;9.07;;;15.60;49.00;;;;;;6245381;28;20749;-81
2023/04/22 07:34:29;;;;;;;9.93;9.13;;;15.60;49.10;;;;;;6261366;28;20313;-79
2023/04/22 07:37:32;;;;;;;10.50;9.60;;;15.60;49.00;;;;;;6258290;28;20637;-79
2023/04/22 07:40:35;;;;;;;11.10;9.97;;;15.80;48.90;;;;;;6254896;28;20233;-78
2023/04/22 07:43:38;;;;;;;10.23;9.33;;;15.80;49.00;;;;;;6259325;28;20229;-81
2023/04/22 07:46:43;;;;;;;10.47;9.60;;;15.90;49.10;;;;;;6254503;28;20308;-78
2023/04/22 07:49:46;;;;;;;10.10;9.30;;;16.00;48.80;;;;;;6262819;28;20230;-80
2023/04/22 07:52:49;;;;;;;11.17;10.00;;;16.10;48.60;;;;;;6259162;28;20244;-81
2023/04/22 07:55:52;;;;;;;11.07;10.00;;;16.20;48.90;;;;;;6255156;28;20242;-81
2023/04/22 07:58:55;;;;;;;9.63;8.83;;;16.40;48.70;;;;;;6262441;28;20241;-80
2023/04/22 08:01:59;;;;;;;8.77;7.90;;;16.40;48.70;;;;;;6260788;28;20375;-80
2023/04/22 08:05:03;;;;;;;9.93;9.23;;;16.50;49.00;;;;;;6266424;28;20476;-80
2023/04/22 08:08:06;;;;;;;10.73;9.73;;;16.60;48.30;;;;;;6265013;28;20238;-82
2023/04/22 08:11:09;;;;;;;9.87;8.97;;;16.70;48.00;;;;;;6264629;28;20238;-84
2023/04/22 08:14:12;;;;;;;10.83;9.83;;;16.70;48.50;;;;;;6259091;28;20225;-80
2023/04/22 08:17:20;;;;;;;9.77;8.93;;;16.80;48.20;;;;;;6260847;28;20234;-81
2023/04/22 08:20:24;;;;;;;10.43;9.43;;;17.00;48.60;;;;;;6264130;28;20267;-85
2023/04/22 08:23:27;;;;;;;9.80;9.00;;;17.20;48.80;;;;;;6266617;28;20378;-80
2023/04/22 08:26:30;;;;;;;10.90;9.30;;;17.40;47.50;;;;;;6265175;28;20234;-82
2023/04/22 08:29:34;;;;;;;10.23;9.17;;;17.50;47.10;;;;;;6259232;28;20313;-77
2023/04/22 08:32:38;;;;;;;11.97;9.43;;;17.50;47.00;;;;;;6260519;28;20241;-78
2023/04/22 08:35:41;;;;;;;10.87;9.80;;;17.70;47.70;;;;;;6256410;28;20265;-80
2023/04/22 08:38:44;;;;;;;10.53;9.53;;;17.80;47.40;;;;;;6244720;28;20234;-77
2023/04/22 08:41:50;;;;;;;9.97;9.00;;;17.90;46.60;;;;;;6250367;28;20261;-77
2023/04/22 08:44:54;;;;;;;9.87;9.07;;;18.00;46.80;;;;;;6262382;28;20226;-77
2023/04/22 08:47:59;;;;;;;9.77;8.77;;;18.10;46.00;;;;;;6260183;28;20241;-76
2023/04/22 08:51:03;;;;;;;8.93;8.23;;;18.20;46.90;;;;;;6256808;28;20241;-78
2023/04/22 08:54:06;;;;;;;9.43;8.67;;;18.20;46.80;;;;;;6252057;28;20743;-77
2023/04/22 08:57:10;;;;;;;11.60;8.40;;;18.40;46.20;;;;;;6244552;28;20234;-77
2023/04/22 09:00:17;;;;;;;10.77;8.20;;;18.50;46.60;;;;;;6242964;28;20279;-80
2023/04/22 09:03:22;;;;;;;10.17;9.10;;;18.60;45.70;;;;;;6260310;28;20235;-81
2023/04/22 09:06:26;;;;;;;10.70;9.87;;;18.70;46.60;;;;;;6269588;28;20241;-80
2023/04/22 09:09:30;;;;;;;10.03;9.07;;;18.70;46.00;;;;;;6256535;28;20265;-79
2023/04/22 09:12:34;;;;;;;11.70;10.60;;;18.80;45.60;;;;;;6264463;28;20264;-82
2023/04/22 09:15:37;;;;;;;9.57;8.63;;;18.90;45.90;;;;;;6262147;28;20238;-79
2023/04/22 09:18:44;;;;;;;9.37;8.40;;;18.90;46.10;;;;;;6246723;28;20236;-80
2023/04/22 09:21:47;;;;;;;8.33;7.53;;;19.10;45.90;;;;;;6259447;28;20277;-83
2023/04/22 09:24:52;;;;;;;9.43;7.67;;;19.30;45.50;;;;;;6256652;28;20234;-80
2023/04/22 09:27:57;;;;;;;9.97;8.97;;;19.30;44.90;;;;;;6251475;28;20631;-81
2023/04/22 09:31:02;;;;;;;9.20;8.40;;;19.30;46.50;;;;;;6256492;28;20238;-82
2023/04/22 09:34:08;;;;;;;10.17;8.43;;;19.20;44.90;;;;;;6252290;28;20237;-83
2023/04/22 09:37:12;;;;;;;7.97;7.47;;;19.30;45.50;;;;;;6252466;28;20607;-80
2023/04/22 09:40:15;;;;;;;9.77;8.87;;;19.50;45.70;;;;;;6257914;28;20606;-79
2023/04/22 09:43:19;;;;;;;8.30;7.50;;;19.50;45.20;;;;;;6260277;28;20241;-81
2023/04/22 09:46:23;;;;;;;11.73;9.23;;;19.70;45.70;;;;;;6262585;28;21034;-81
2023/04/22 09:49:28;;;;;;;8.10;7.30;;;19.70;46.00;;;;;;6254682;28;21284;-85
2023/04/22 09:52:33;;;;;;;8.00;7.50;;;19.80;45.30;;;;;;6259109;28;20328;-82
2023/04/22 09:55:39;;;;;;;10.43;8.00;;;20.00;44.60;;;;;;6247284;28;20231;-83
2023/04/22 09:58:43;;;;;;;8.37;7.53;;;20.00;45.20;;;;;;6259117;28;20344;-82
2023/04/22 10:01:46;;;;;;;9.80;7.27;;;19.90;44.80;;;;;;6252161;28;20330;-83
2023/04/22 10:04:51;;;;;;;8.47;7.87;;;20.00;44.50;;;;;;6263554;28;20234;-82
2023/04/22 10:07:54;;;;;;;8.90;7.50;;;20.00;44.40;;;;;;6264451;28;20653;-84
2023/04/22 10:10:58;;;;;;;8.47;7.50;;;20.00;44.70;;;;;;6268625;28;20536;-82
2023/04/22 10:14:01;;;;;;;8.10;7.50;;;20.10;44.80;;;;;;6265168;28;20318;-84
2023/04/22 10:17:06;;;;;;;8.80;7.00;;;20.30;44.30;;;;;;6256782;28;20231;-84
2023/04/22 10:20:16;;;;;;;8.10;7.37;;;20.30;44.10;;;;;;6257765;28;21385;-77
2023/04/22 10:23:21;;;;;;;8.57;7.00;;;20.50;45.00;;;;;;6256208;28;20235;-78
2023/04/22 10:26:43;;;;;;;8.87;6.97;;;20.60;43.10;;;;;;6254512;28;20253;-78
2023/04/22 10:29:47;;;;;;;7.13;6.47;;;20.60;42.90;;;;;;6249217;28;20444;-75
2023/04/22 10:32:50;;;;;;;9.00;6.90;;;20.70;43.20;;;;;;6251719;28;20230;-76
2023/04/22 10:36:08;;;;;;;8.03;7.20;;;20.80;43.20;;;;;;6254120;28;20261;-75
2023/04/22 10:39:17;;;;;;;7.30;6.70;;;20.90;42.90;;;;;;6229088;28;20728;-75
2023/04/22 10:42:21;;;;;;;7.30;6.80;;;21.00;42.90;;;;;;6247760;28;20272;-76
2023/04/22 10:45:25;;;;;;;7.27;6.57;;;21.10;42.30;;;;;;6231540;28;20726;-76
2023/04/22 10:48:49;;;;;;;7.60;6.80;;;21.10;42.70;;;;;;6229634;28;20318;-79
2023/04/22 10:51:57;;;;;;;7.10;6.47;;;21.10;41.00;;;;;;6242269;28;20234;-81
2023/04/22 10:55:00;;;;;;;7.03;6.43;;;21.00;42.90;;;;;;6230204;28;20233;-77
2023/04/22 10:58:03;;;;;;;7.80;7.00;;;21.10;42.30;;;;;;6237275;28;20695;-85
2023/04/22 11:01:15;;;;;;;7.80;6.73;;;21.30;42.20;;;;;;6237910;28;20238;-76
2023/04/22 11:04:23;;;;;;;7.27;6.77;;;21.10;41.60;;;;;;6233396;28;20703;-77
2023/04/22 11:07:35;;;;;;;7.63;6.60;;;21.10;41.50;;;;;;6234816;28;20242;-75
2023/04/22 11:10:43;;;;;;;8.70;6.93;;;21.30;41.50;;;;;;6250218;28;20242;-79
2023/04/22 11:13:49;;;;;;;8.07;7.27;;;21.30;41.20;;;;;;6239363;28;20697;-79
2023/04/22 11:16:52;;;;;;;7.87;7.13;;;21.40;40.90;;;;;;6248403;28;20245;-75
2023/04/22 11:19:56;;;;;;;7.63;7.03;;;21.30;40.50;;;;;;6257694;28;20307;-77
2023/04/22 11:23:02;;;;;;;7.23;6.53;;;21.30;41.10;;;;;;6258603;28;20269;-78
2023/04/22 11:26:06;;;;;;;8.57;6.50;;;21.30;41.20;;;;;;6260820;28;20261;-77
2023/04/22 11:29:09;;;;;;;8.73;6.10;;;21.40;41.50;;;;;;6254649;28;20464;-79
2023/04/22 11:32:12;;;;;;;6.70;6.10;;;21.50;40.80;;;;;;6260163;28;20244;-77
2023/04/22 11:35:19;;;;;;;7.60;6.90;;;21.70;40.40;;;;;;6275365;28;20732;-82
2023/04/22 11:38:26;;;;;;;6.70;6.20;;;21.70;40.40;;;;;;6275482;28;20240;-77
2023/04/22 11:41:30;;;;;;;7.20;6.50;;;21.70;40.20;;;;;;6279773;28;20680;-80
2023/04/22 11:44:33;;;;;;;8.10;7.40;;;21.70;40.70;;;;;;6290806;28;20248;-77
2023/04/22 11:47:36;;;;;;;8.93;8.23;;;21.90;40.90;;;;;;6299794;28;20229;-77
2023/04/22 11:50:41;;;;;;;19.73;15.80;;;21.90;40.20;;;;;;6265842;28;20337;-76
2023/04/22 11:53:51;;;;;;;7.23;6.67;;;22.00;40.70;;;;;;6269037;28;20234;-77
2023/04/22 11:56:54;;;;;;;8.77;6.90;;;22.00;39.60;;;;;;6262888;28;20218;-77
2023/04/22 11:59:58;;;;;;;7.27;6.67;;;22.00;39.70;;;;;;6274107;28;20241;-77
2023/04/22 12:03:03;;;;;;;7.13;6.53;;;22.30;39.70;;;;;;6254970;28;20242;-79
2023/04/22 12:06:06;;;;;;;7.00;6.60;;;22.50;39.40;;;;;;6254405;28;20238;-77
2023/04/22 12:09:11;;;;;;;7.73;7.03;;;22.50;39.80;;;;;;6248312;28;20246;-78
2023/04/22 12:12:16;;;;;;;7.60;7.03;;;22.60;40.20;;;;;;6243888;28;20243;-78
2023/04/22 12:15:19;;;;;;;9.10;8.30;;;22.70;40.20;;;;;;6235458;28;20230;-82
2023/04/22 12:18:29;;;;;;;6.77;6.27;;;22.60;39.90;;;;;;6245410;28;20243;-82
2023/04/22 12:21:33;;;;;;;6.80;6.40;;;22.50;39.70;;;;;;6251085;28;20242;-81
2023/04/22 12:24:44;;;;;;;7.27;6.77;;;22.50;40.50;;;;;;6252138;28;20234;-82
2023/04/22 12:27:47;;;;;;;7.27;6.67;;;22.60;39.60;;;;;;6235426;28;20248;-81
2023/04/22 12:30:50;;;;;;;8.93;7.23;;;22.60;40.10;;;;;;6260696;28;20749;-80
2023/04/22 12:33:54;;;;;;;7.53;7.03;;;22.50;40.20;;;;;;6260566;28;20276;-80
2023/04/22 12:36:57;;;;;;;7.00;6.47;;;22.50;39.50;;;;;;6258935;28;20728;-81
2023/04/22 12:40:03;;;;;;;8.73;7.40;;;22.40;39.90;;;;;;6266150;28;20924;-81
2023/04/22 12:43:07;;;;;;;6.77;6.37;;;22.50;39.80;;;;;;6258443;28;20701;-80
2023/04/22 12:46:10;;;;;;;6.87;6.27;;;22.60;38.80;;;;;;6266946;28;20230;-77
2023/04/22 12:49:13;;;;;;;7.10;6.60;;;22.50;39.30;;;;;;6239211;28;20359;-79
2023/04/22 12:52:16;;;;;;;7.30;6.70;;;22.70;38.70;;;;;;6243066;28;20247;-79
2023/04/22 12:55:21;;;;;;;6.30;5.83;;;22.50;39.80;;;;;;6243891;28;20265;-79
2023/04/22 12:58:25;;;;;;;8.33;6.70;;;22.50;39.40;;;;;;6252986;28;20266;-77
2023/04/22 13:01:28;;;;;;;6.93;6.43;;;22.70;39.30;;;;;;6270277;28;20252;-76
2023/04/22 13:04:31;;;;;;;7.70;7.00;;;22.70;38.30;;;;;;6264737;28;20373;-79
2023/04/22 13:07:34;;;;;;;7.83;6.90;;;22.60;38.60;;;;;;6270190;28;20230;-75
2023/04/22 13:10:38;;;;;;;6.13;5.77;;;22.70;39.10;;;;;;6300724;28;20240;-77
2023/04/22 13:13:42;;;;;;;8.10;6.00;;;22.60;38.30;;;;;;6283311;28;20237;-77
2023/04/22 13:16:45;;;;;;;6.50;6.00;;;22.70;37.60;;;;;;6299968;28;20322;-79
2023/04/22 13:19:49;;;;;;;8.60;6.30;;;22.70;37.70;;;;;;6289204;28;20241;-77
2023/04/22 13:22:52;;;;;;;7.10;6.60;;;22.70;37.60;;;;;;6293047;28;20340;-77
2023/04/22 13:25:57;;;;;;;8.03;7.13;;;22.70;38.00;;;;;;6290626;28;20425;-77
2023/04/22 13:29:00;;;;;;;8.03;7.37;;;22.70;38.90;;;;;;6283167;28;20237;-79
2023/04/22 13:32:05;;;;;;;8.43;7.63;;;22.60;38.80;;;;;;6276738;28;20238;-79
2023/04/22 13:35:09;;;;;;;8.27;7.63;;;22.60;39.70;;;;;;6264327;28;20244;-79
2023/04/22 13:38:12;;;;;;;8.50;7.70;;;22.60;39.70;;;;;;6259218;28;20229;-80
2023/04/22 13:41:17;;;;;;;8.10;7.40;;;22.70;39.90;;;;;;6263246;28;20233;-82
2023/04/22 13:44:20;;;;;;;7.60;7.10;;;22.80;39.70;;;;;;6245830;28;20243;-82
2023/04/22 13:47:23;;;;;;;8.33;7.53;;;22.70;39.80;;;;;;6246199;28;20249;-81
2023/04/22 13:50:26;;;;;;;8.30;7.47;;;22.80;40.00;;;;;;6255765;28;20243;-80
2023/04/22 13:53:29;;;;;;;7.77;7.27;;;22.90;39.70;;;;;;6269059;28;20308;-80
2023/04/22 13:56:36;;;;;;;7.97;7.20;;;22.80;40.20;;;;;;6263500;28;20265;-79
2023/04/22 13:59:41;;;;;;;7.43;6.93;;;22.80;39.40;;;;;;6273477;28;20351;-80
2023/04/22 14:02:44;;;;;;;7.33;6.73;;;23.00;39.70;;;;;;6269090;28;20237;-80
2023/04/22 14:05:48;;;;;;;7.20;6.70;;;23.00;39.70;;;;;;6261528;28;20236;-78
2023/04/22 14:08:51;;;;;;;8.53;7.70;;;23.10;39.70;;;;;;6274240;28;20233;-83
2023/04/22 14:11:55;;;;;;;8.47;7.60;;;23.20;39.30;;;;;;6269769;28;20250;-81
2023/04/22 14:15:01;;;;;;;7.47;6.97;;;23.10;39.20;;;;;;6267054;28;20252;-82
2023/04/22 14:18:05;;;;;;;8.03;7.33;;;23.00;38.90;;;;;;6265624;28;20329;-79
2023/04/22 14:21:09;;;;;;;8.30;7.40;;;22.80;39.10;;;;;;6272138;28;20729;-80
2023/04/22 14:24:12;;;;;;;7.30;6.90;;;22.80;39.30;;;;;;6259293;28;20239;-80
2023/04/22 14:27:17;;;;;;;8.23;7.40;;;22.90;39.50;;;;;;6257874;28;20234;-83
2023/04/22 14:30:20;;;;;;;7.80;7.27;;;22.70;39.60;;;;;;6245630;28;20296;-81
2023/04/22 14:33:24;;;;;;;7.63;7.33;;;22.80;39.60;;;;;;6237209;28;20299;-82
2023/04/22 14:36:27;;;;;;;7.17;6.77;;;22.70;39.30;;;;;;6234717;28;20231;-82
2023/04/22 14:39:31;;;;;;;7.87;7.03;;;22.80;39.50;;;;;;6267427;28;20241;-81
2023/04/22 14:42:35;;;;;;;7.00;6.50;;;22.90;39.70;;;;;;6260167;28;20238;-81
2023/04/22 14:45:39;;;;;;;7.17;6.67;;;23.10;39.20;;;;;;6252331;28;20238;-84
2023/04/22 14:48:42;;;;;;;7.97;7.30;;;23.20;39.30;;;;;;6278297;28;20234;-79
2023/04/22 14:51:46;;;;;;;10.00;7.20;;;23.20;39.20;;;;;;6264110;28;20258;-83
2023/04/22 14:54:49;;;;;;;8.20;7.33;;;23.20;39.20;;;;;;6274587;28;20235;-81
2023/04/22 14:57:57;;;;;;;9.70;7.33;;;23.30;39.30;;;;;;6276130;28;20873;-83
2023/04/22 15:01:00;;;;;;;7.47;7.00;;;23.30;39.00;;;;;;6263305;28;20245;-84
2023/04/22 15:04:03;;;;;;;7.50;6.23;;;23.10;39.20;;;;;;6265524;28;20229;-80
2023/04/22 15:07:06;;;;;;;8.00;7.40;;;23.00;39.70;;;;;;6259601;28;20315;-81
2023/04/22 15:10:10;;;;;;;8.93;8.03;;;23.00;39.60;;;;;;6261514;28;20313;-80
2023/04/22 15:13:14;;;;;;;7.80;7.10;;;22.90;39.70;;;;;;6269988;28;20229;-80
2023/04/22 15:16:18;;;;;;;7.50;7.03;;;23.10;39.60;;;;;;6270665;28;20233;-81
2023/04/22 15:19:21;;;;;;;7.23;6.77;;;23.50;39.20;;;;;;6255026;28;20238;-81
2023/04/22 15:22:24;;;;;;;7.37;6.77;;;23.60;38.40;;;;;;6273924;28;20724;-80
2023/04/22 15:25:27;;;;;;;7.27;6.87;;;23.40;39.30;;;;;;6259327;28;20690;-81
2023/04/22 15:28:33;;;;;;;7.80;7.10;;;23.30;39.10;;;;;;6252030;28;20264;-83
2023/04/22 15:31:36;;;;;;;7.93;7.23;;;23.20;38.80;;;;;;6250505;28;20353;-80
2023/04/22 15:34:39;;;;;;;8.00;7.43;;;23.30;38.70;;;;;;6240576;28;20238;-83
2023/04/22 15:37:44;;;;;;;8.23;7.73;;;23.30;38.90;;;;;;6246583;28;20377;-83
2023/04/22 15:40:47;;;;;;;7.07;6.43;;;23.20;38.70;;;;;;6252781;28;20266;-81
2023/04/22 15:43:53;;;;;;;7.60;7.00;;;23.10;38.60;;;;;;6241041;28;20708;-81
2023/04/22 15:46:58;;;;;;;7.07;6.57;;;23.00;38.90;;;;;;6250701;28;20310;-80
2023/04/22 15:50:05;;;;;;;8.73;7.63;;;22.80;39.30;;;;;;6253335;28;20230;-81
2023/04/22 15:53:08;;;;;;;6.53;6.13;;;22.70;38.80;;;;;;6250681;28;20279;-82